sensor_id;sensor_type;location;lat;lon;timestamp;temperature;humidity
52867;DHT22;38739;53.324;6.862;2022-09-12T00:00:31;14.40;99.90
52867;DHT22;38739;53.324;6.862;2022-09-12T00:02:57;14.50;99.90
52867;DHT22;38739;53.324;6.862;2022-09-12T00:05:24;14.40;99.90
52867;DHT22;38739;53.324;6.862;2022-09-12T00:07:51;14.40;99.90
52867;DHT22;38739;53.324;6.862;2022-09-12T00:10:17;14.40;99.90
52867;DHT22;38739;53.324;6.862;2022-09-12T00:12:43;14.40;99.90
52867;DHT22;38739;53.324;6.862;2022-09-12T00:15:10;14.40;99.90
52867;DHT22;38739;53.324;6.862;2022-09-12T00:17:37;14.30;99.90
52867;DHT22;38739;53.324;6.862;2022-09-12T00:20:04;14.30;99.90
52867;DHT22;38739;53.324;6.862;2022-09-12T00:22:31;14.30;99.90
52867;DHT22;38739;53.324;6.862;2022-09-12T00:24:57;14.30;99.90
52867;DHT22;38739;53.324;6.862;2022-09-12T00:27:23;14.30;99.90
52867;DHT22;38739;53.324;6.862;2022-09-12T00:29:48;14.20;99.90
52867;DHT22;38739;53.324;6.862;2022-09-12T00:32:14;14.20;99.90
52867;DHT22;38739;53.324;6.862;2022-09-12T00:34:40;14.20;99.90
52867;DHT22;38739;53.324;6.862;2022-09-12T00:37:05;14.20;99.90
52867;DHT22;38739;53.324;6.862;2022-09-12T00:39:31;14.20;99.90
52867;DHT22;38739;53.324;6.862;2022-09-12T00:41:57;14.20;99.90
52867;DHT22;38739;53.324;6.862;2022-09-12T00:46:52;14.10;99.90
52867;DHT22;38739;53.324;6.862;2022-09-12T00:52:09;14.10;99.90
52867;DHT22;38739;53.324;6.862;2022-09-12T00:54:39;14.00;99.90
52867;DHT22;38739;53.324;6.862;2022-09-12T00:57:07;14.00;99.90
52867;DHT22;38739;53.324;6.862;2022-09-12T00:59:45;13.90;99.90
52867;DHT22;38739;53.324;6.862;2022-09-12T01:02:12;13.90;99.90
52867;DHT22;38739;53.324;6.862;2022-09-12T01:04:39;13.90;99.90
52867;DHT22;38739;53.324;6.862;2022-09-12T01:07:07;13.90;99.90
52867;DHT22;38739;53.324;6.862;2022-09-12T01:09:33;13.90;99.90
52867;DHT22;38739;53.324;6.862;2022-09-12T01:12:01;13.90;99.90
52867;DHT22;38739;53.324;6.862;2022-09-12T01:14:29;13.80;99.90
52867;DHT22;38739;53.324;6.862;2022-09-12T01:16:55;13.90;99.90
52867;DHT22;38739;53.324;6.862;2022-09-12T01:19:27;13.80;99.90
52867;DHT22;38739;53.324;6.862;2022-09-12T01:27:39;13.70;99.90
52867;DHT22;38739;53.324;6.862;2022-09-12T01:30:27;13.70;99.90
52867;DHT22;38739;53.324;6.862;2022-09-12T01:38:38;13.70;99.90
52867;DHT22;38739;53.324;6.862;2022-09-12T01:44:03;13.60;99.90
52867;DHT22;38739;53.324;6.862;2022-09-12T01:49:50;13.50;99.90
52867;DHT22;38739;53.324;6.862;2022-09-12T01:52:25;13.50;99.90
52867;DHT22;38739;53.324;6.862;2022-09-12T01:55:14;13.50;99.90
52867;DHT22;38739;53.324;6.862;2022-09-12T01:57:58;13.50;99.90
52867;DHT22;38739;53.324;6.862;2022-09-12T02:00:25;13.50;99.90
52867;DHT22;38739;53.324;6.862;2022-09-12T02:02:58;13.40;99.90
52867;DHT22;38739;53.324;6.862;2022-09-12T02:05:34;13.40;99.90
52867;DHT22;38739;53.324;6.862;2022-09-12T02:08:20;13.40;99.90
52867;DHT22;38739;53.324;6.862;2022-09-12T02:11:10;13.40;99.90
52867;DHT22;38739;53.324;6.862;2022-09-12T02:19:14;13.40;99.90
52867;DHT22;38739;53.324;6.862;2022-09-12T02:21:46;13.30;99.90
52867;DHT22;38739;53.324;6.862;2022-09-12T02:24:15;13.30;99.90
52867;DHT22;38739;53.324;6.862;2022-09-12T02:26:51;13.30;99.90
52867;DHT22;38739;53.324;6.862;2022-09-12T02:29:19;13.30;99.90
52867;DHT22;38739;53.324;6.862;2022-09-12T02:39:45;13.20;99.90
52867;DHT22;38739;53.324;6.862;2022-09-12T02:42:11;13.20;99.90
52867;DHT22;38739;53.324;6.862;2022-09-12T02:44:37;13.10;99.90
52867;DHT22;38739;53.324;6.862;2022-09-12T02:47:11;13.10;99.90
52867;DHT22;38739;53.324;6.862;2022-09-12T02:49:38;13.10;99.90
52867;DHT22;38739;53.324;6.862;2022-09-12T02:52:04;13.10;99.90
52867;DHT22;38739;53.324;6.862;2022-09-12T02:54:31;13.10;99.90
52867;DHT22;38739;53.324;6.862;2022-09-12T02:56:57;13.00;99.90
52867;DHT22;38739;53.324;6.862;2022-09-12T02:59:23;13.00;99.90
52867;DHT22;38739;53.324;6.862;2022-09-12T03:02:08;13.00;99.90
52867;DHT22;38739;53.324;6.862;2022-09-12T03:07:45;13.00;99.90
52867;DHT22;38739;53.324;6.862;2022-09-12T03:10:31;13.00;99.90
52867;DHT22;38739;53.324;6.862;2022-09-12T03:15:44;12.90;99.90
52867;DHT22;38739;53.324;6.862;2022-09-12T03:19:02;12.90;99.90
52867;DHT22;38739;53.324;6.862;2022-09-12T03:21:46;12.90;99.90
52867;DHT22;38739;53.324;6.862;2022-09-12T03:24:19;12.80;99.90
52867;DHT22;38739;53.324;6.862;2022-09-12T03:27:06;12.80;99.90
52867;DHT22;38739;53.324;6.862;2022-09-12T03:29:34;12.80;99.90
52867;DHT22;38739;53.324;6.862;2022-09-12T03:32:00;12.70;99.90
52867;DHT22;38739;53.324;6.862;2022-09-12T03:34:27;12.70;99.90
52867;DHT22;38739;53.324;6.862;2022-09-12T03:36:53;12.70;99.90
52867;DHT22;38739;53.324;6.862;2022-09-12T03:39:20;12.70;99.90
52867;DHT22;38739;53.324;6.862;2022-09-12T03:41:49;12.70;99.90
52867;DHT22;38739;53.324;6.862;2022-09-12T03:44:15;12.70;99.90
52867;DHT22;38739;53.324;6.862;2022-09-12T03:46:41;12.70;99.90
52867;DHT22;38739;53.324;6.862;2022-09-12T03:49:06;12.70;99.90
52867;DHT22;38739;53.324;6.862;2022-09-12T03:51:32;12.60;99.90
52867;DHT22;38739;53.324;6.862;2022-09-12T03:53:58;12.60;99.90
52867;DHT22;38739;53.324;6.862;2022-09-12T03:56:23;12.60;99.90
52867;DHT22;38739;53.324;6.862;2022-09-12T03:58:49;12.60;99.90
52867;DHT22;38739;53.324;6.862;2022-09-12T04:01:17;12.50;99.90
52867;DHT22;38739;53.324;6.862;2022-09-12T04:03:45;12.50;99.90
52867;DHT22;38739;53.324;6.862;2022-09-12T04:06:14;12.50;99.90
52867;DHT22;38739;53.324;6.862;2022-09-12T04:08:41;12.50;99.90
52867;DHT22;38739;53.324;6.862;2022-09-12T04:11:10;12.50;99.90
52867;DHT22;38739;53.324;6.862;2022-09-12T04:13:37;12.50;99.90
52867;DHT22;38739;53.324;6.862;2022-09-12T04:16:03;12.50;99.90
52867;DHT22;38739;53.324;6.862;2022-09-12T04:18:30;12.50;99.90
52867;DHT22;38739;53.324;6.862;2022-09-12T04:20:56;12.50;99.90
52867;DHT22;38739;53.324;6.862;2022-09-12T04:23:22;12.50;99.90
52867;DHT22;38739;53.324;6.862;2022-09-12T04:25:55;12.50;99.90
52867;DHT22;38739;53.324;6.862;2022-09-12T04:28:21;12.50;99.90
52867;DHT22;38739;53.324;6.862;2022-09-12T04:30:47;12.50;99.90
52867;DHT22;38739;53.324;6.862;2022-09-12T04:33:13;12.50;99.90
52867;DHT22;38739;53.324;6.862;2022-09-12T04:35:39;12.50;99.90
52867;DHT22;38739;53.324;6.862;2022-09-12T04:38:06;12.50;99.90
52867;DHT22;38739;53.324;6.862;2022-09-12T04:40:32;12.50;99.90
52867;DHT22;38739;53.324;6.862;2022-09-12T04:42:58;12.50;99.90
52867;DHT22;38739;53.324;6.862;2022-09-12T04:45:24;12.50;99.90
52867;DHT22;38739;53.324;6.862;2022-09-12T04:47:50;12.50;99.90
52867;DHT22;38739;53.324;6.862;2022-09-12T04:50:16;12.50;99.90
52867;DHT22;38739;53.324;6.862;2022-09-12T04:52:41;12.50;99.90
52867;DHT22;38739;53.324;6.862;2022-09-12T04:55:08;12.50;99.90
52867;DHT22;38739;53.324;6.862;2022-09-12T04:57:34;12.50;99.90
52867;DHT22;38739;53.324;6.862;2022-09-12T05:00:02;12.50;99.90
52867;DHT22;38739;53.324;6.862;2022-09-12T05:02:32;12.50;99.90
52867;DHT22;38739;53.324;6.862;2022-09-12T05:04:58;12.50;99.90
52867;DHT22;38739;53.324;6.862;2022-09-12T05:07:23;12.50;99.90
52867;DHT22;38739;53.324;6.862;2022-09-12T05:09:49;12.50;99.90
52867;DHT22;38739;53.324;6.862;2022-09-12T05:12:15;12.60;99.90
52867;DHT22;38739;53.324;6.862;2022-09-12T05:14:41;12.60;99.90
52867;DHT22;38739;53.324;6.862;2022-09-12T05:17:06;12.70;99.90
52867;DHT22;38739;53.324;6.862;2022-09-12T05:19:32;12.70;99.90
52867;DHT22;38739;53.324;6.862;2022-09-12T05:21:58;12.80;99.90
52867;DHT22;38739;53.324;6.862;2022-09-12T05:24:24;12.80;99.90
52867;DHT22;38739;53.324;6.862;2022-09-12T05:26:50;12.90;99.90
52867;DHT22;38739;53.324;6.862;2022-09-12T05:29:16;12.90;99.90
52867;DHT22;38739;53.324;6.862;2022-09-12T05:31:42;12.90;99.90
52867;DHT22;38739;53.324;6.862;2022-09-12T05:34:10;13.00;99.90
52867;DHT22;38739;53.324;6.862;2022-09-12T05:36:37;13.00;99.90
52867;DHT22;38739;53.324;6.862;2022-09-12T05:39:03;13.10;99.90
52867;DHT22;38739;53.324;6.862;2022-09-12T05:41:31;13.20;99.90
52867;DHT22;38739;53.324;6.862;2022-09-12T05:44:03;13.20;99.90
52867;DHT22;38739;53.324;6.862;2022-09-12T05:46:35;13.20;99.90
52867;DHT22;38739;53.324;6.862;2022-09-12T05:49:02;13.30;99.90
52867;DHT22;38739;53.324;6.862;2022-09-12T05:51:32;13.40;99.90
52867;DHT22;38739;53.324;6.862;2022-09-12T05:53:59;13.40;99.90
52867;DHT22;38739;53.324;6.862;2022-09-12T05:56:30;13.40;99.90
52867;DHT22;38739;53.324;6.862;2022-09-12T05:59:01;13.50;99.90
52867;DHT22;38739;53.324;6.862;2022-09-12T06:01:28;13.50;99.90
52867;DHT22;38739;53.324;6.862;2022-09-12T06:03:56;13.60;99.90
52867;DHT22;38739;53.324;6.862;2022-09-12T06:06:24;13.60;99.90
52867;DHT22;38739;53.324;6.862;2022-09-12T06:08:51;13.60;99.90
52867;DHT22;38739;53.324;6.862;2022-09-12T06:11:20;13.70;99.90
52867;DHT22;38739;53.324;6.862;2022-09-12T06:13:48;13.70;99.90
52867;DHT22;38739;53.324;6.862;2022-09-12T06:16:17;13.80;99.90
52867;DHT22;38739;53.324;6.862;2022-09-12T06:18:48;13.80;99.90
52867;DHT22;38739;53.324;6.862;2022-09-12T06:21:14;13.90;99.90
52867;DHT22;38739;53.324;6.862;2022-09-12T06:23:40;13.90;99.90
52867;DHT22;38739;53.324;6.862;2022-09-12T06:26:08;14.00;99.90
52867;DHT22;38739;53.324;6.862;2022-09-12T06:28:37;14.00;99.90
52867;DHT22;38739;53.324;6.862;2022-09-12T06:31:05;14.10;99.90
52867;DHT22;38739;53.324;6.862;2022-09-12T06:33:36;14.10;99.90
52867;DHT22;38739;53.324;6.862;2022-09-12T06:36:10;14.20;99.90
52867;DHT22;38739;53.324;6.862;2022-09-12T06:38:37;14.30;99.90
52867;DHT22;38739;53.324;6.862;2022-09-12T06:41:08;14.30;99.90
52867;DHT22;38739;53.324;6.862;2022-09-12T06:43:34;14.40;99.90
52867;DHT22;38739;53.324;6.862;2022-09-12T06:46:00;14.50;99.90
52867;DHT22;38739;53.324;6.862;2022-09-12T06:48:26;14.50;99.90
52867;DHT22;38739;53.324;6.862;2022-09-12T06:50:57;14.60;99.90
52867;DHT22;38739;53.324;6.862;2022-09-12T06:53:24;14.70;99.90
52867;DHT22;38739;53.324;6.862;2022-09-12T06:56:01;14.70;99.90
52867;DHT22;38739;53.324;6.862;2022-09-12T06:58:29;14.80;99.90
52867;DHT22;38739;53.324;6.862;2022-09-12T07:01:08;14.80;99.90
52867;DHT22;38739;53.324;6.862;2022-09-12T07:03:35;14.90;99.90
52867;DHT22;38739;53.324;6.862;2022-09-12T07:08:34;15.00;99.90
52867;DHT22;38739;53.324;6.862;2022-09-12T07:11:37;15.10;99.90
52867;DHT22;38739;53.324;6.862;2022-09-12T07:14:04;15.10;99.90
52867;DHT22;38739;53.324;6.862;2022-09-12T07:16:30;15.20;99.90
52867;DHT22;38739;53.324;6.862;2022-09-12T07:18:58;15.20;99.90
52867;DHT22;38739;53.324;6.862;2022-09-12T07:21:24;15.20;99.90
52867;DHT22;38739;53.324;6.862;2022-09-12T07:23:50;15.30;99.90
52867;DHT22;38739;53.324;6.862;2022-09-12T07:26:17;15.40;99.90
52867;DHT22;38739;53.324;6.862;2022-09-12T07:28:43;15.40;99.90
52867;DHT22;38739;53.324;6.862;2022-09-12T07:31:15;15.50;99.90
52867;DHT22;38739;53.324;6.862;2022-09-12T07:33:42;15.50;99.90
52867;DHT22;38739;53.324;6.862;2022-09-12T07:36:11;15.60;99.90
52867;DHT22;38739;53.324;6.862;2022-09-12T07:38:38;15.70;99.90
52867;DHT22;38739;53.324;6.862;2022-09-12T07:41:16;15.70;99.90
52867;DHT22;38739;53.324;6.862;2022-09-12T07:43:43;15.80;99.90
52867;DHT22;38739;53.324;6.862;2022-09-12T07:46:09;15.90;99.90
52867;DHT22;38739;53.324;6.862;2022-09-12T07:48:35;16.00;99.90
52867;DHT22;38739;53.324;6.862;2022-09-12T07:51:02;16.10;99.90
52867;DHT22;38739;53.324;6.862;2022-09-12T07:53:37;16.20;99.90
52867;DHT22;38739;53.324;6.862;2022-09-12T07:56:05;16.30;99.90
52867;DHT22;38739;53.324;6.862;2022-09-12T07:58:32;16.40;99.90
52867;DHT22;38739;53.324;6.862;2022-09-12T08:01:19;16.50;99.90
52867;DHT22;38739;53.324;6.862;2022-09-12T08:03:47;16.60;99.90
52867;DHT22;38739;53.324;6.862;2022-09-12T08:06:18;16.60;99.90
52867;DHT22;38739;53.324;6.862;2022-09-12T08:08:52;16.70;99.90
52867;DHT22;38739;53.324;6.862;2022-09-12T08:11:20;16.70;99.90
52867;DHT22;38739;53.324;6.862;2022-09-12T08:13:47;16.70;99.90
52867;DHT22;38739;53.324;6.862;2022-09-12T08:16:15;16.70;99.90
52867;DHT22;38739;53.324;6.862;2022-09-12T08:18:44;16.80;99.90
52867;DHT22;38739;53.324;6.862;2022-09-12T08:21:18;16.80;99.90
52867;DHT22;38739;53.324;6.862;2022-09-12T08:23:45;16.80;99.90
52867;DHT22;38739;53.324;6.862;2022-09-12T08:26:11;16.90;99.90
52867;DHT22;38739;53.324;6.862;2022-09-12T08:28:38;17.10;99.90
52867;DHT22;38739;53.324;6.862;2022-09-12T08:31:09;17.20;99.90
52867;DHT22;38739;53.324;6.862;2022-09-12T08:33:35;17.30;99.90
52867;DHT22;38739;53.324;6.862;2022-09-12T08:38:39;17.60;99.90
52867;DHT22;38739;53.324;6.862;2022-09-12T08:43:52;17.80;99.90
52867;DHT22;38739;53.324;6.862;2022-09-12T08:46:35;17.90;99.90
52867;DHT22;38739;53.324;6.862;2022-09-12T08:49:03;17.90;99.90
52867;DHT22;38739;53.324;6.862;2022-09-12T08:51:32;18.00;99.90
52867;DHT22;38739;53.324;6.862;2022-09-12T08:53:59;18.10;99.90
52867;DHT22;38739;53.324;6.862;2022-09-12T08:56:28;18.20;99.90
52867;DHT22;38739;53.324;6.862;2022-09-12T08:58:56;18.20;99.90
52867;DHT22;38739;53.324;6.862;2022-09-12T09:01:31;18.30;99.90
52867;DHT22;38739;53.324;6.862;2022-09-12T09:04:26;18.30;99.90
52867;DHT22;38739;53.324;6.862;2022-09-12T09:17:43;18.70;99.90
52867;DHT22;38739;53.324;6.862;2022-09-12T09:23:28;18.80;99.90
52867;DHT22;38739;53.324;6.862;2022-09-12T09:26:05;18.90;99.90
52867;DHT22;38739;53.324;6.862;2022-09-12T09:28:50;19.00;99.90
52867;DHT22;38739;53.324;6.862;2022-09-12T09:31:19;19.10;99.90
52867;DHT22;38739;53.324;6.862;2022-09-12T09:33:51;19.10;99.90
52867;DHT22;38739;53.324;6.862;2022-09-12T09:38:57;19.30;99.90
52867;DHT22;38739;53.324;6.862;2022-09-12T09:44:11;19.50;99.90
52867;DHT22;38739;53.324;6.862;2022-09-12T09:46:37;19.60;99.90
52867;DHT22;38739;53.324;6.862;2022-09-12T09:49:04;19.80;99.90
52867;DHT22;38739;53.324;6.862;2022-09-12T09:51:39;19.90;99.90
52867;DHT22;38739;53.324;6.862;2022-09-12T09:54:12;20.20;99.90
52867;DHT22;38739;53.324;6.862;2022-09-12T09:56:41;20.40;99.90
52867;DHT22;38739;53.324;6.862;2022-09-12T09:59:26;20.80;99.90
52867;DHT22;38739;53.324;6.862;2022-09-12T10:02:18;21.20;99.90
52867;DHT22;38739;53.324;6.862;2022-09-12T10:04:56;21.70;99.90
52867;DHT22;38739;53.324;6.862;2022-09-12T10:07:24;22.10;99.90
52867;DHT22;38739;53.324;6.862;2022-09-12T10:12:35;22.70;99.90
52867;DHT22;38739;53.324;6.862;2022-09-12T10:15:12;23.00;99.90
52867;DHT22;38739;53.324;6.862;2022-09-12T10:17:45;23.30;99.90
52867;DHT22;38739;53.324;6.862;2022-09-12T10:22:58;23.90;99.90
52867;DHT22;38739;53.324;6.862;2022-09-12T10:25:25;24.30;99.90
52867;DHT22;38739;53.324;6.862;2022-09-12T10:27:58;24.50;99.90
52867;DHT22;38739;53.324;6.862;2022-09-12T10:30:26;24.50;99.90
52867;DHT22;38739;53.324;6.862;2022-09-12T10:32:58;24.80;99.90
52867;DHT22;38739;53.324;6.862;2022-09-12T10:35:28;25.10;99.90
52867;DHT22;38739;53.324;6.862;2022-09-12T10:38:06;25.40;99.90
52867;DHT22;38739;53.324;6.862;2022-09-12T10:40:40;25.70;99.90
52867;DHT22;38739;53.324;6.862;2022-09-12T10:45:49;25.90;99.90
52867;DHT22;38739;53.324;6.862;2022-09-12T10:48:30;26.00;99.90
52867;DHT22;38739;53.324;6.862;2022-09-12T10:50:57;26.20;99.90
52867;DHT22;38739;53.324;6.862;2022-09-12T10:53:24;26.50;99.90
52867;DHT22;38739;53.324;6.862;2022-09-12T11:09:30;28.00;99.90
52867;DHT22;38739;53.324;6.862;2022-09-12T11:12:08;28.30;99.80
52867;DHT22;38739;53.324;6.862;2022-09-12T11:15:00;28.80;99.30
52867;DHT22;38739;53.324;6.862;2022-09-12T11:17:40;29.20;97.20
52867;DHT22;38739;53.324;6.862;2022-09-12T11:23:24;29.60;95.20
52867;DHT22;38739;53.324;6.862;2022-09-12T11:34:54;29.20;93.80
52867;DHT22;38739;53.324;6.862;2022-09-12T11:43:40;30.10;90.00
52867;DHT22;38739;53.324;6.862;2022-09-12T11:46:19;30.40;90.40
52867;DHT22;38739;53.324;6.862;2022-09-12T11:57:28;31.80;88.00
52867;DHT22;38739;53.324;6.862;2022-09-12T12:02:54;32.40;80.80
52867;DHT22;38739;53.324;6.862;2022-09-12T12:05:30;32.40;80.50
52867;DHT22;38739;53.324;6.862;2022-09-12T12:08:02;32.30;80.30
52867;DHT22;38739;53.324;6.862;2022-09-12T12:10:39;32.40;81.00
52867;DHT22;38739;53.324;6.862;2022-09-12T12:15:51;32.70;79.70
52867;DHT22;38739;53.324;6.862;2022-09-12T12:18:24;33.10;78.50
52867;DHT22;38739;53.324;6.862;2022-09-12T12:20:51;33.50;78.20
52867;DHT22;38739;53.324;6.862;2022-09-12T12:23:33;33.60;75.20
52867;DHT22;38739;53.324;6.862;2022-09-12T12:26:01;33.80;76.60
52867;DHT22;38739;53.324;6.862;2022-09-12T12:31:05;32.90;72.50
52867;DHT22;38739;53.324;6.862;2022-09-12T12:36:03;32.00;77.90
52867;DHT22;38739;53.324;6.862;2022-09-12T12:38:35;31.50;76.50
52867;DHT22;38739;53.324;6.862;2022-09-12T12:43:52;31.40;74.90
52867;DHT22;38739;53.324;6.862;2022-09-12T12:46:25;31.50;76.50
52867;DHT22;38739;53.324;6.862;2022-09-12T12:49:18;31.80;75.10
52867;DHT22;38739;53.324;6.862;2022-09-12T12:51:57;31.70;74.60
52867;DHT22;38739;53.324;6.862;2022-09-12T12:54:32;31.80;76.10
52867;DHT22;38739;53.324;6.862;2022-09-12T12:59:31;31.70;76.40
52867;DHT22;38739;53.324;6.862;2022-09-12T13:01:57;31.90;76.60
52867;DHT22;38739;53.324;6.862;2022-09-12T13:04:27;32.20;75.80
52867;DHT22;38739;53.324;6.862;2022-09-12T13:07:05;32.60;75.20
52867;DHT22;38739;53.324;6.862;2022-09-12T13:09:44;32.70;71.70
52867;DHT22;38739;53.324;6.862;2022-09-12T13:12:24;32.50;72.50
52867;DHT22;38739;53.324;6.862;2022-09-12T13:14:54;32.30;72.40
52867;DHT22;38739;53.324;6.862;2022-09-12T13:19:53;32.30;72.80
52867;DHT22;38739;53.324;6.862;2022-09-12T13:22:22;31.90;72.10
52867;DHT22;38739;53.324;6.862;2022-09-12T13:24:52;31.50;74.40
52867;DHT22;38739;53.324;6.862;2022-09-12T13:27:23;31.10;74.30
52867;DHT22;38739;53.324;6.862;2022-09-12T13:30:22;30.90;74.70
52867;DHT22;38739;53.324;6.862;2022-09-12T13:32:48;30.80;74.20
52867;DHT22;38739;53.324;6.862;2022-09-12T13:35:55;30.90;73.20
52867;DHT22;38739;53.324;6.862;2022-09-12T13:38:32;31.10;73.60
52867;DHT22;38739;53.324;6.862;2022-09-12T13:43:46;31.40;73.40
52867;DHT22;38739;53.324;6.862;2022-09-12T13:46:16;31.50;72.50
52867;DHT22;38739;53.324;6.862;2022-09-12T13:48:43;31.70;71.90
52867;DHT22;38739;53.324;6.862;2022-09-12T13:51:22;31.80;72.10
52867;DHT22;38739;53.324;6.862;2022-09-12T13:53:51;31.50;73.10
52867;DHT22;38739;53.324;6.862;2022-09-12T13:56:18;31.60;72.70
52867;DHT22;38739;53.324;6.862;2022-09-12T13:58:53;31.10;72.20
52867;DHT22;38739;53.324;6.862;2022-09-12T14:01:21;30.70;72.90
52867;DHT22;38739;53.324;6.862;2022-09-12T14:03:52;30.50;73.10
52867;DHT22;38739;53.324;6.862;2022-09-12T14:06:46;30.50;72.90
52867;DHT22;38739;53.324;6.862;2022-09-12T14:09:33;30.60;73.50
52867;DHT22;38739;53.324;6.862;2022-09-12T14:12:00;30.70;74.30
52867;DHT22;38739;53.324;6.862;2022-09-12T14:14:35;31.00;74.50
52867;DHT22;38739;53.324;6.862;2022-09-12T14:17:15;31.00;71.40
52867;DHT22;38739;53.324;6.862;2022-09-12T14:19:42;31.00;73.20
52867;DHT22;38739;53.324;6.862;2022-09-12T14:22:11;30.90;72.70
52867;DHT22;38739;53.324;6.862;2022-09-12T14:24:44;30.90;72.60
52867;DHT22;38739;53.324;6.862;2022-09-12T14:27:17;31.10;73.00
52867;DHT22;38739;53.324;6.862;2022-09-12T14:29:44;31.10;72.50
52867;DHT22;38739;53.324;6.862;2022-09-12T14:32:21;30.90;71.00
52867;DHT22;38739;53.324;6.862;2022-09-12T14:35:17;30.90;72.30
52867;DHT22;38739;53.324;6.862;2022-09-12T14:37:47;30.80;71.60
52867;DHT22;38739;53.324;6.862;2022-09-12T14:40:16;30.80;72.70
52867;DHT22;38739;53.324;6.862;2022-09-12T14:42:43;30.40;72.50
52867;DHT22;38739;53.324;6.862;2022-09-12T14:45:29;30.10;71.90
52867;DHT22;38739;53.324;6.862;2022-09-12T14:47:56;29.80;72.60
52867;DHT22;38739;53.324;6.862;2022-09-12T14:50:27;29.60;74.00
52867;DHT22;38739;53.324;6.862;2022-09-12T14:53:04;29.50;75.30
52867;DHT22;38739;53.324;6.862;2022-09-12T14:55:32;29.60;74.40
52867;DHT22;38739;53.324;6.862;2022-09-12T15:01:23;29.30;74.30
52867;DHT22;38739;53.324;6.862;2022-09-12T15:03:51;29.00;74.00
52867;DHT22;38739;53.324;6.862;2022-09-12T15:06:29;29.00;75.30
52867;DHT22;38739;53.324;6.862;2022-09-12T15:09:02;29.20;75.10
52867;DHT22;38739;53.324;6.862;2022-09-12T15:11:29;29.40;73.60
52867;DHT22;38739;53.324;6.862;2022-09-12T15:13:55;29.50;73.80
52867;DHT22;38739;53.324;6.862;2022-09-12T15:16:21;29.50;74.10
52867;DHT22;38739;53.324;6.862;2022-09-12T15:18:46;29.70;74.90
52867;DHT22;38739;53.324;6.862;2022-09-12T15:21:16;30.10;74.40
52867;DHT22;38739;53.324;6.862;2022-09-12T15:23:48;30.40;74.10
52867;DHT22;38739;53.324;6.862;2022-09-12T15:26:17;30.90;73.20
52867;DHT22;38739;53.324;6.862;2022-09-12T15:28:43;31.30;72.20
52867;DHT22;38739;53.324;6.862;2022-09-12T15:33:44;31.10;71.70
52867;DHT22;38739;53.324;6.862;2022-09-12T15:36:16;31.10;71.50
52867;DHT22;38739;53.324;6.862;2022-09-12T15:38:42;31.20;71.00
52867;DHT22;38739;53.324;6.862;2022-09-12T15:41:18;31.40;71.50
52867;DHT22;38739;53.324;6.862;2022-09-12T15:43:45;31.70;70.80
52867;DHT22;38739;53.324;6.862;2022-09-12T15:46:12;31.60;69.90
52867;DHT22;38739;53.324;6.862;2022-09-12T15:48:39;31.40;69.70
52867;DHT22;38739;53.324;6.862;2022-09-12T15:51:14;31.10;70.80
52867;DHT22;38739;53.324;6.862;2022-09-12T15:53:40;30.70;71.50
52867;DHT22;38739;53.324;6.862;2022-09-12T15:56:06;30.40;71.90
52867;DHT22;38739;53.324;6.862;2022-09-12T15:58:35;29.90;72.40
52867;DHT22;38739;53.324;6.862;2022-09-12T16:01:01;29.20;72.70
52867;DHT22;38739;53.324;6.862;2022-09-12T16:03:28;28.60;74.60
52867;DHT22;38739;53.324;6.862;2022-09-12T16:06:01;28.10;75.80
52867;DHT22;38739;53.324;6.862;2022-09-12T16:08:29;27.70;76.20
52867;DHT22;38739;53.324;6.862;2022-09-12T16:11:06;27.60;77.10
52867;DHT22;38739;53.324;6.862;2022-09-12T16:13:32;27.50;77.30
52867;DHT22;38739;53.324;6.862;2022-09-12T16:15:59;27.20;78.00
52867;DHT22;38739;53.324;6.862;2022-09-12T16:18:26;27.00;79.00
52867;DHT22;38739;53.324;6.862;2022-09-12T16:20:56;26.70;80.10
52867;DHT22;38739;53.324;6.862;2022-09-12T16:23:22;26.40;80.80
52867;DHT22;38739;53.324;6.862;2022-09-12T16:26:03;26.20;82.20
52867;DHT22;38739;53.324;6.862;2022-09-12T16:28:29;26.00;82.00
52867;DHT22;38739;53.324;6.862;2022-09-12T16:31:01;25.80;82.60
52867;DHT22;38739;53.324;6.862;2022-09-12T16:33:28;25.60;84.10
52867;DHT22;38739;53.324;6.862;2022-09-12T16:36:09;25.50;83.90
52867;DHT22;38739;53.324;6.862;2022-09-12T16:38:40;25.20;84.10
52867;DHT22;38739;53.324;6.862;2022-09-12T16:41:06;25.10;85.20
52867;DHT22;38739;53.324;6.862;2022-09-12T16:43:33;24.80;85.40
52867;DHT22;38739;53.324;6.862;2022-09-12T16:46:10;24.70;86.30
52867;DHT22;38739;53.324;6.862;2022-09-12T16:48:41;24.50;87.60
52867;DHT22;38739;53.324;6.862;2022-09-12T16:51:07;24.30;87.40
52867;DHT22;38739;53.324;6.862;2022-09-12T16:53:34;24.20;87.60
52867;DHT22;38739;53.324;6.862;2022-09-12T16:56:00;24.10;88.40
52867;DHT22;38739;53.324;6.862;2022-09-12T16:58:25;24.00;88.00
52867;DHT22;38739;53.324;6.862;2022-09-12T17:01:19;23.90;88.80
52867;DHT22;38739;53.324;6.862;2022-09-12T17:03:46;23.80;89.40
52867;DHT22;38739;53.324;6.862;2022-09-12T17:06:16;23.70;89.40
52867;DHT22;38739;53.324;6.862;2022-09-12T17:08:48;23.70;89.70
52867;DHT22;38739;53.324;6.862;2022-09-12T17:11:22;23.60;90.40
52867;DHT22;38739;53.324;6.862;2022-09-12T17:13:51;23.50;90.60
52867;DHT22;38739;53.324;6.862;2022-09-12T17:16:18;23.50;90.70
52867;DHT22;38739;53.324;6.862;2022-09-12T17:18:44;23.50;90.80
52867;DHT22;38739;53.324;6.862;2022-09-12T17:21:10;23.40;90.70
52867;DHT22;38739;53.324;6.862;2022-09-12T17:23:36;23.30;90.90
52867;DHT22;38739;53.324;6.862;2022-09-12T17:26:03;23.30;91.20
52867;DHT22;38739;53.324;6.862;2022-09-12T17:28:29;23.20;91.20
52867;DHT22;38739;53.324;6.862;2022-09-12T17:31:00;23.10;91.20
52867;DHT22;38739;53.324;6.862;2022-09-12T17:33:27;23.00;91.40
52867;DHT22;38739;53.324;6.862;2022-09-12T17:35:53;22.90;91.50
52867;DHT22;38739;53.324;6.862;2022-09-12T17:38:19;22.80;92.10
52867;DHT22;38739;53.324;6.862;2022-09-12T17:40:45;22.70;91.80
52867;DHT22;38739;53.324;6.862;2022-09-12T17:43:14;22.60;92.30
52867;DHT22;38739;53.324;6.862;2022-09-12T17:45:40;22.50;92.40
52867;DHT22;38739;53.324;6.862;2022-09-12T17:48:06;22.40;92.40
52867;DHT22;38739;53.324;6.862;2022-09-12T17:50:39;22.30;92.80
52867;DHT22;38739;53.324;6.862;2022-09-12T17:53:08;22.20;93.00
52867;DHT22;38739;53.324;6.862;2022-09-12T17:55:37;22.10;93.20
52867;DHT22;38739;53.324;6.862;2022-09-12T17:58:05;22.00;93.40
52867;DHT22;38739;53.324;6.862;2022-09-12T18:00:33;21.90;93.60
52867;DHT22;38739;53.324;6.862;2022-09-12T18:03:21;21.80;93.90
52867;DHT22;38739;53.324;6.862;2022-09-12T18:05:51;21.70;94.40
52867;DHT22;38739;53.324;6.862;2022-09-12T18:08:17;21.60;94.70
52867;DHT22;38739;53.324;6.862;2022-09-12T18:10:44;21.50;94.90
52867;DHT22;38739;53.324;6.862;2022-09-12T18:13:10;21.50;95.50
52867;DHT22;38739;53.324;6.862;2022-09-12T18:15:36;21.40;95.70